Time;durP1;ratioP1;P1;durP2;ratioP2;P2;SDS_P1;SDS_P2;PMS_P1;PMS_P2;Temp;Humidity;BMP_temperature;BMP_pressure;BME280_temperature;BME280_humidity;BME280_pressure;Samples;Min_cycle;Max_cycle;Signal;HPM_P1;HPM_P2
2021/07/20 00:02:42;;;;;;;18.00;9.45;;;14.80;98.90;;;;;;5042473;28;20033;-80
2021/07/20 00:05:11;;;;;;;13.63;8.00;;;14.70;99.40;;;;;;5026606;28;20033;-81
2021/07/20 00:07:39;;;;;;;16.20;8.45;;;14.70;99.40;;;;;;5014059;28;20037;-81
2021/07/20 00:10:10;;;;;;;14.02;9.15;;;14.70;99.50;;;;;;5045035;28;20041;-81
2021/07/20 00:12:36;;;;;;;15.45;8.57;;;14.70;99.60;;;;;;5042402;28;20044;-81
2021/07/20 00:15:06;;;;;;;17.15;10.43;;;14.70;99.80;;;;;;5009733;28;20057;-80
2021/07/20 00:17:33;;;;;;;18.40;10.02;;;14.70;99.90;;;;;;5027381;28;20049;-80
2021/07/20 00:20:00;;;;;;;16.35;10.15;;;14.70;99.90;;;;;;5046125;28;20044;-80
2021/07/20 00:22:27;;;;;;;15.27;8.88;;;14.70;99.90;;;;;;5027550;28;20045;-80
2021/07/20 00:24:53;;;;;;;16.52;9.52;;;14.60;99.90;;;;;;5027883;28;20044;-80
2021/07/20 00:27:20;;;;;;;13.82;9.55;;;14.60;99.90;;;;;;5012342;28;20191;-80
2021/07/20 00:29:46;;;;;;;11.85;7.60;;;14.60;99.90;;;;;;5045980;28;20052;-80
2021/07/20 00:32:12;;;;;;;15.02;9.02;;;14.60;99.90;;;;;;5044175;28;20041;-80
2021/07/20 00:34:40;;;;;;;14.45;8.50;;;14.60;99.90;;;;;;5010462;28;20049;-80
2021/07/20 00:37:07;;;;;;;13.50;9.02;;;14.60;99.90;;;;;;5024245;28;20725;-80
2021/07/20 00:39:33;;;;;;;16.67;8.95;;;14.60;99.90;;;;;;5043756;28;20492;-80
2021/07/20 00:42:01;;;;;;;15.30;8.98;;;14.60;99.90;;;;;;5042900;28;20037;-80
2021/07/20 00:44:28;;;;;;;13.20;8.07;;;14.60;99.90;;;;;;4993507;28;20052;-80
2021/07/20 00:46:55;;;;;;;13.45;8.40;;;14.50;99.90;;;;;;5024502;28;20071;-80
2021/07/20 00:49:21;;;;;;;14.25;8.95;;;14.50;99.90;;;;;;5026611;28;20037;-80
2021/07/20 00:51:48;;;;;;;12.73;7.90;;;14.50;99.90;;;;;;5042318;28;20056;-80
2021/07/20 00:54:17;;;;;;;11.35;8.13;;;14.50;99.90;;;;;;5024161;28;20044;-80
2021/07/20 00:56:44;;;;;;;15.18;8.45;;;14.40;99.90;;;;;;5027022;28;20060;-81
2021/07/20 00:59:12;;;;;;;12.43;7.57;;;14.40;99.90;;;;;;5021269;28;20041;-81
2021/07/20 01:01:39;;;;;;;13.20;7.78;;;14.40;99.90;;;;;;5042664;28;20033;-80
2021/07/20 01:04:05;;;;;;;13.75;8.05;;;14.40;99.90;;;;;;5027631;28;20056;-80
2021/07/20 01:06:34;;;;;;;14.27;8.35;;;14.40;99.90;;;;;;5010443;28;20496;-80
2021/07/20 01:09:04;;;;;;;14.63;8.52;;;14.30;99.90;;;;;;5043827;28;20041;-79
2021/07/20 01:11:36;;;;;;;12.98;8.27;;;14.30;99.90;;;;;;5010962;28;20056;-78
2021/07/20 01:14:04;;;;;;;13.18;7.95;;;14.20;99.90;;;;;;5042034;28;20037;-78
2021/07/20 01:16:33;;;;;;;15.60;8.48;;;14.20;99.90;;;;;;5042516;28;21342;-78
2021/07/20 01:19:04;;;;;;;14.68;8.32;;;14.10;99.90;;;;;;5024436;28;20139;-78
2021/07/20 01:21:37;;;;;;;12.93;8.35;;;14.10;99.90;;;;;;5048502;28;20044;-78
2021/07/20 01:24:11;;;;;;;14.27;8.00;;;14.10;99.90;;;;;;5026792;28;20033;-78
2021/07/20 01:26:37;;;;;;;13.40;9.07;;;14.10;99.90;;;;;;5043545;28;20033;-78
2021/07/20 01:29:06;;;;;;;11.88;8.48;;;14.00;99.90;;;;;;5026773;28;20049;-78
2021/07/20 01:31:39;;;;;;;13.77;8.23;;;14.00;99.90;;;;;;5025025;28;20059;-78
2021/07/20 01:34:13;;;;;;;15.10;8.90;;;14.00;99.90;;;;;;5026743;28;20037;-78
2021/07/20 01:36:45;;;;;;;12.85;8.55;;;14.00;99.90;;;;;;5043997;28;20037;-78
2021/07/20 01:39:15;;;;;;;;;;;13.90;99.90;;;;;;5044552;28;20033;-78
2021/07/20 01:41:44;;;;;;;15.43;8.27;;;13.90;99.90;;;;;;5044393;28;20295;-78
2021/07/20 01:44:14;;;;;;;12.20;8.10;;;13.90;99.90;;;;;;5044197;28;20392;-78
2021/07/20 01:46:47;;;;;;;13.63;8.35;;;13.80;99.90;;;;;;5041217;28;20416;-80
2021/07/20 01:49:17;;;;;;;13.30;8.65;;;13.80;99.90;;;;;;4995492;28;20052;-80
2021/07/20 01:51:48;;;;;;;12.18;8.48;;;13.80;99.90;;;;;;5020416;28;20044;-80
2021/07/20 01:54:19;;;;;;;15.10;8.32;;;13.70;99.90;;;;;;5024347;28;20067;-78
2021/07/20 01:56:50;;;;;;;14.07;8.45;;;13.70;99.90;;;;;;5043253;28;20040;-78
2021/07/20 01:59:19;;;;;;;15.82;8.93;;;13.70;99.90;;;;;;5043556;28;20037;-78
2021/07/20 02:02:37;;;;;;;13.65;8.70;;;13.70;99.90;;;;;;5043221;28;20392;-78
2021/07/20 02:10:36;;;;;;;13.32;8.80;;;13.60;99.90;;;;;;5028006;28;20058;-78
2021/07/20 02:13:16;;;;;;;16.75;9.43;;;13.50;99.90;;;;;;5031235;28;20041;-78
2021/07/20 02:15:50;;;;;;;15.27;9.57;;;13.60;99.90;;;;;;5045557;28;20044;-78
2021/07/20 02:18:29;;;;;;;16.70;8.82;;;13.60;99.90;;;;;;5045161;28;20033;-79
2021/07/20 02:21:05;;;;;;;12.48;8.18;;;13.50;99.90;;;;;;5047164;28;20044;-78
2021/07/20 02:23:50;;;;;;;14.65;8.45;;;13.50;99.90;;;;;;5045848;28;20044;-78
2021/07/20 02:26:18;;;;;;;17.00;9.25;;;13.50;99.90;;;;;;5029209;28;20037;-78
2021/07/20 02:28:45;;;;;;;15.23;9.00;;;13.50;99.90;;;;;;5046629;28;20056;-79
2021/07/20 02:31:14;;;;;;;19.00;10.63;;;13.50;99.90;;;;;;5046766;28;20045;-80
2021/07/20 02:33:42;;;;;;;15.88;9.20;;;13.50;99.90;;;;;;5047251;28;20056;-80
2021/07/20 02:36:11;;;;;;;18.98;10.55;;;13.50;99.90;;;;;;5030326;28;20045;-80
2021/07/20 02:38:40;;;;;;;16.10;10.02;;;13.50;99.90;;;;;;5029594;28;20045;-80
2021/07/20 02:41:11;;;;;;;18.92;11.38;;;13.50;99.90;;;;;;5028870;28;20496;-80
2021/07/20 02:43:42;;;;;;;16.02;9.82;;;13.50;99.90;;;;;;5046075;28;20033;-79
2021/07/20 02:46:11;;;;;;;20.30;11.32;;;13.50;99.90;;;;;;5047093;28;20021;-80
2021/07/20 02:48:43;;;;;;;18.05;10.95;;;13.50;99.90;;;;;;5028835;28;20394;-80
2021/07/20 02:51:16;;;;;;;16.83;10.27;;;13.60;99.90;;;;;;5046992;28;20029;-80
2021/07/20 02:53:48;;;;;;;20.45;11.77;;;13.60;99.90;;;;;;5045062;28;20052;-80
2021/07/20 02:56:17;;;;;;;;;;;13.60;99.90;;;;;;5045682;28;20396;-80
2021/07/20 02:58:53;;;;;;;19.48;10.43;;;13.60;99.90;;;;;;5022136;28;19913;-79
2021/07/20 03:01:32;;;;;;;17.52;10.20;;;13.50;99.90;;;;;;5014117;28;20528;-78
2021/07/20 03:03:59;;;;;;;18.30;10.25;;;13.60;99.90;;;;;;5028659;28;20044;-78
2021/07/20 03:06:31;;;;;;;20.15;11.05;;;13.60;99.90;;;;;;5028140;28;20057;-78
2021/07/20 03:08:59;;;;;;;18.48;11.40;;;13.60;99.90;;;;;;5029942;28;20404;-79
2021/07/20 03:11:50;;;;;;;14.55;8.77;;;13.50;99.90;;;;;;5027463;28;20044;-78
2021/07/20 03:14:24;;;;;;;16.95;9.88;;;13.60;99.90;;;;;;5044239;28;20048;-79
2021/07/20 03:17:06;;;;;;;14.23;9.10;;;13.60;99.90;;;;;;5029588;28;20041;-79
2021/07/20 03:19:35;;;;;;;15.05;8.73;;;13.60;99.90;;;;;;5029997;28;20040;-79
2021/07/20 03:22:07;;;;;;;12.93;8.73;;;13.60;99.90;;;;;;5044675;28;20033;-79
2021/07/20 03:24:42;;;;;;;15.18;8.98;;;13.60;99.90;;;;;;5043210;28;20047;-80
2021/07/20 03:27:10;;;;;;;18.60;9.43;;;13.50;99.90;;;;;;5029186;28;20532;-79
2021/07/20 03:29:46;;;;;;;14.82;8.70;;;13.50;99.90;;;;;;5029449;28;20048;-80
2021/07/20 03:32:20;;;;;;;14.15;8.95;;;13.50;99.90;;;;;;5045503;28;20029;-80
2021/07/20 03:34:50;;;;;;;11.98;8.15;;;13.50;99.90;;;;;;5023904;28;20060;-80
2021/07/20 03:37:21;;;;;;;15.32;9.43;;;13.50;99.90;;;;;;5010992;28;20047;-80
2021/07/20 03:39:52;;;;;;;15.57;9.07;;;13.40;99.90;;;;;;5046191;28;20047;-80
2021/07/20 03:42:24;;;;;;;15.05;8.95;;;13.40;99.90;;;;;;5037048;28;20048;-80
2021/07/20 03:44:52;;;;;;;14.77;8.70;;;13.40;99.90;;;;;;5042886;28;20043;-80
2021/07/20 03:47:19;;;;;;;15.32;9.25;;;13.30;99.90;;;;;;5046551;28;20048;-80
2021/07/20 03:49:47;;;;;;;14.38;8.45;;;13.30;99.90;;;;;;4996892;28;20040;-80
2021/07/20 03:52:15;;;;;;;16.05;9.32;;;13.30;99.90;;;;;;5028464;28;20594;-80
2021/07/20 03:54:43;;;;;;;15.85;9.80;;;13.20;99.90;;;;;;5045413;28;20033;-80
2021/07/20 03:57:13;;;;;;;14.30;8.82;;;13.30;99.90;;;;;;5012294;28;20045;-79
2021/07/20 03:59:47;;;;;;;14.27;8.65;;;13.20;99.90;;;;;;5028077;28;20497;-79
2021/07/20 04:06:00;;;;;;;13.65;8.13;;;13.20;99.90;;;;;;5046021;28;20043;-80
2021/07/20 04:08:29;;;;;;;15.77;9.35;;;13.10;99.90;;;;;;5043814;28;20032;-79
2021/07/20 04:10:58;;;;;;;13.35;8.35;;;13.10;99.90;;;;;;5026259;28;20515;-80
2021/07/20 04:13:34;;;;;;;15.93;8.85;;;13.10;99.90;;;;;;5028833;28;20040;-80
2021/07/20 04:16:25;;;;;;;17.35;10.20;;;13.10;99.90;;;;;;5024444;28;20045;-80
2021/07/20 04:18:52;;;;;;;18.88;9.93;;;13.10;99.90;;;;;;5046787;28;20033;-80
2021/07/20 04:21:26;;;;;;;16.95;10.50;;;13.10;99.90;;;;;;5044860;28;20049;-80
2021/07/20 04:23:54;;;;;;;15.40;9.60;;;13.10;99.90;;;;;;5002461;28;20052;-80
2021/07/20 04:26:32;;;;;;;15.98;8.85;;;13.10;99.90;;;;;;5009975;28;20056;-80
2021/07/20 04:29:00;;;;;;;15.70;9.32;;;13.10;99.90;;;;;;5044424;28;20049;-79
2021/07/20 04:31:27;;;;;;;15.25;8.80;;;13.10;99.90;;;;;;5046558;28;20041;-80
2021/07/20 04:33:57;;;;;;;15.43;8.43;;;13.20;99.90;;;;;;5027115;28;20044;-81
2021/07/20 04:36:38;;;;;;;17.08;10.10;;;13.20;99.90;;;;;;5047092;28;20036;-78
2021/07/20 04:39:28;;;;;;;16.02;9.52;;;13.20;99.90;;;;;;5034789;28;20055;-78
2021/07/20 04:41:58;;;;;;;17.73;10.85;;;13.30;99.90;;;;;;5045778;28;20044;-78
2021/07/20 04:44:25;;;;;;;19.42;12.02;;;13.30;99.90;;;;;;5031504;28;20036;-78
2021/07/20 04:47:08;;;;;;;16.85;10.23;;;13.40;99.90;;;;;;5028994;28;20044;-78
2021/07/20 04:49:35;;;;;;;14.98;9.48;;;13.40;99.90;;;;;;5044487;28;20380;-79
2021/07/20 04:52:03;;;;;;;18.58;10.13;;;13.50;99.90;;;;;;4993829;28;20049;-80
2021/07/20 04:54:31;;;;;;;16.58;9.70;;;13.50;99.90;;;;;;5025947;28;20041;-80
2021/07/20 04:57:00;;;;;;;16.80;9.93;;;13.50;99.90;;;;;;5044293;28;20041;-80
2021/07/20 04:59:30;;;;;;;13.02;8.40;;;13.60;99.90;;;;;;5027904;28;20048;-79
2021/07/20 05:01:58;;;;;;;13.80;8.88;;;13.70;99.90;;;;;;5024313;28;20038;-80
2021/07/20 05:04:33;;;;;;;12.70;8.45;;;13.80;99.90;;;;;;5042328;28;20029;-78
2021/07/20 05:07:02;;;;;;;16.05;8.95;;;13.90;99.90;;;;;;5038852;28;20052;-78
2021/07/20 05:09:30;;;;;;;15.50;9.07;;;14.00;99.90;;;;;;5042123;28;20380;-78
2021/07/20 05:11:57;;;;;;;15.45;9.10;;;14.10;99.90;;;;;;5040970;28;20040;-77
2021/07/20 05:14:24;;;;;;;14.38;8.32;;;14.20;99.90;;;;;;5041176;28;20037;-78
2021/07/20 05:16:53;;;;;;;13.95;8.50;;;14.30;99.90;;;;;;5022912;28;20056;-78
2021/07/20 05:19:21;;;;;;;14.77;8.43;;;14.40;99.90;;;;;;5042275;28;20037;-78
2021/07/20 05:21:52;;;;;;;11.98;7.00;;;14.50;99.90;;;;;;5042021;28;20044;-78
2021/07/20 05:24:24;;;;;;;12.93;7.97;;;14.60;99.90;;;;;;5042810;28;20784;-77
2021/07/20 05:26:59;;;;;;;11.57;7.25;;;14.70;99.90;;;;;;5042868;28;20044;-78
2021/07/20 05:29:27;;;;;;;13.13;7.55;;;14.90;99.90;;;;;;5042795;28;20044;-78
2021/07/20 05:32:20;;;;;;;10.73;7.30;;;15.00;99.90;;;;;;5043935;28;20045;-78
2021/07/20 05:34:49;;;;;;;11.25;7.88;;;15.00;99.90;;;;;;5043787;28;20899;-78
2021/07/20 05:37:19;;;;;;;10.52;6.75;;;15.10;99.90;;;;;;5018657;28;20475;-78
2021/07/20 05:39:48;;;;;;;11.70;6.88;;;15.10;99.90;;;;;;5045446;28;20489;-77
2021/07/20 05:42:23;;;;;;;12.75;7.40;;;15.20;99.90;;;;;;5022988;28;20480;-78
2021/07/20 05:44:51;;;;;;;11.60;7.53;;;15.30;99.90;;;;;;5045751;28;20044;-78
2021/07/20 05:47:20;;;;;;;12.35;6.32;;;15.40;99.90;;;;;;5048759;28;20384;-79
2021/07/20 05:49:47;;;;;;;15.70;11.60;;;15.60;99.90;;;;;;5031288;28;20049;-81
2021/07/20 05:52:17;;;;;;;12.05;8.75;;;15.70;99.90;;;;;;5049026;28;20063;-80
2021/07/20 05:54:50;;;;;;;;;;;15.90;99.90;;;;;;5031128;28;20041;-79
2021/07/20 05:57:31;;;;;;;12.68;8.35;;;16.10;99.90;;;;;;5047724;28;20726;-81
2021/07/20 06:00:09;;;;;;;9.85;6.60;;;16.30;99.90;;;;;;5024313;28;20037;-82
2021/07/20 06:02:56;;;;;;;8.80;6.45;;;16.30;99.90;;;;;;5034009;28;20055;-82
2021/07/20 06:05:27;;;;;;;15.40;11.40;;;16.50;99.90;;;;;;5030700;28;20032;-81
2021/07/20 06:07:57;;;;;;;13.02;9.65;;;16.70;99.90;;;;;;5046432;28;20086;-80
2021/07/20 06:10:25;;;;;;;13.80;9.60;;;16.80;99.90;;;;;;5007553;28;20381;-79
2021/07/20 06:12:53;;;;;;;13.38;7.95;;;16.90;99.90;;;;;;5042771;28;20049;-79
2021/07/20 06:15:20;;;;;;;10.07;6.78;;;17.10;99.60;;;;;;5046793;28;20500;-80
2021/07/20 06:17:47;;;;;;;10.30;7.40;;;17.40;99.30;;;;;;5047546;28;20400;-80
2021/07/20 06:20:14;;;;;;;11.15;7.50;;;17.70;98.60;;;;;;5047201;28;20067;-79
2021/07/20 06:22:50;;;;;;;8.30;6.57;;;18.00;97.60;;;;;;5046666;28;20036;-80
2021/07/20 06:25:22;;;;;;;8.80;5.97;;;18.30;96.70;;;;;;5028038;28;20025;-80
2021/07/20 06:27:49;;;;;;;7.63;5.57;;;18.40;96.10;;;;;;5046319;28;20040;-80
2021/07/20 06:30:16;;;;;;;9.52;6.18;;;18.40;96.10;;;;;;5032051;28;20036;-80
2021/07/20 06:32:44;;;;;;;8.38;6.13;;;18.50;95.80;;;;;;5048239;28;20499;-80
2021/07/20 06:35:15;;;;;;;7.10;5.47;;;18.70;95.50;;;;;;5046976;28;20048;-80
2021/07/20 06:37:45;;;;;;;10.43;7.18;;;18.80;95.10;;;;;;5048033;28;20567;-79
2021/07/20 06:40:19;;;;;;;9.80;6.55;;;18.90;94.70;;;;;;5046836;28;20041;-79
2021/07/20 06:42:48;;;;;;;9.52;6.72;;;18.90;94.40;;;;;;5042637;28;20048;-79
2021/07/20 06:45:16;;;;;;;7.75;6.05;;;19.10;94.30;;;;;;5047792;28;20056;-82
2021/07/20 06:47:45;;;;;;;9.52;6.93;;;19.30;94.20;;;;;;5027008;28;20040;-82
2021/07/20 06:50:15;;;;;;;11.35;6.65;;;19.60;93.70;;;;;;5047675;28;20041;-81
2021/07/20 06:52:42;;;;;;;10.10;6.22;;;19.80;93.10;;;;;;5013726;28;20045;-81
2021/07/20 06:55:10;;;;;;;10.10;7.03;;;20.00;93.00;;;;;;5012416;28;20048;-81
2021/07/20 06:57:39;;;;;;;8.20;5.85;;;20.10;92.00;;;;;;5046832;28;20047;-82
2021/07/20 07:00:07;;;;;;;8.93;5.40;;;20.20;91.70;;;;;;5030373;28;20052;-81
2021/07/20 07:02:36;;;;;;;9.98;6.95;;;20.20;91.70;;;;;;5008093;28;20068;-81
2021/07/20 07:05:08;;;;;;;11.82;6.28;;;20.20;91.10;;;;;;5045781;28;20032;-82
2021/07/20 07:07:35;;;;;;;6.78;5.30;;;20.20;91.10;;;;;;5046241;28;20036;-82
2021/07/20 07:10:04;;;;;;;8.38;7.18;;;20.30;91.20;;;;;;5028332;28;20044;-82
2021/07/20 07:12:32;;;;;;;10.30;6.35;;;20.30;90.60;;;;;;5045634;28;20036;-80
2021/07/20 07:15:02;;;;;;;9.95;7.05;;;20.30;90.30;;;;;;5009656;28;20049;-78
2021/07/20 07:17:29;;;;;;;11.73;6.78;;;20.40;90.00;;;;;;5046884;28;20084;-80
2021/07/20 07:19:57;;;;;;;8.63;6.25;;;20.40;89.10;;;;;;5028938;28;20075;-79
2021/07/20 07:22:25;;;;;;;8.50;6.43;;;20.40;87.70;;;;;;5019238;28;20045;-79
2021/07/20 07:24:57;;;;;;;7.63;6.47;;;20.40;87.00;;;;;;5044396;28;20052;-78
2021/07/20 07:27:24;;;;;;;8.38;6.43;;;20.40;86.40;;;;;;5048461;28;20028;-78
2021/07/20 07:29:55;;;;;;;7.75;6.22;;;20.40;85.70;;;;;;5046322;28;20484;-78
2021/07/20 07:32:21;;;;;;;8.18;5.78;;;20.40;85.30;;;;;;5045296;28;20037;-79
2021/07/20 07:34:49;;;;;;;10.43;6.60;;;20.60;85.20;;;;;;5045140;28;20037;-80
2021/07/20 07:37:21;;;;;;;8.55;6.10;;;20.60;84.00;;;;;;5043114;28;20435;-79
2021/07/20 07:39:55;;;;;;;10.23;7.43;;;20.80;84.60;;;;;;5044374;28;20041;-78
2021/07/20 07:42:22;;;;;;;7.45;6.50;;;20.90;83.40;;;;;;5043786;28;20472;-78
2021/07/20 07:44:51;;;;;;;8.65;7.05;;;21.00;83.00;;;;;;5027767;28;20045;-79
2021/07/20 07:47:18;;;;;;;10.55;7.07;;;21.10;82.70;;;;;;5043607;28;20033;-79
2021/07/20 07:49:46;;;;;;;8.18;5.60;;;21.20;81.90;;;;;;5011382;28;20057;-79
2021/07/20 07:52:13;;;;;;;10.35;6.47;;;21.20;81.20;;;;;;5044329;28;20052;-79
2021/07/20 07:54:41;;;;;;;7.40;5.45;;;21.40;81.30;;;;;;5045957;28;20044;-79
2021/07/20 07:57:17;;;;;;;7.28;6.53;;;21.50;81.70;;;;;;5029222;28;20049;-80
2021/07/20 07:59:46;;;;;;;8.77;6.13;;;21.60;78.00;;;;;;5045330;28;20127;-79
2021/07/20 08:02:19;;;;;;;6.85;6.00;;;21.70;78.20;;;;;;5046232;28;20044;-80
2021/07/20 08:04:47;;;;;;;8.85;6.15;;;21.80;77.90;;;;;;5044033;28;20052;-80
2021/07/20 08:07:16;;;;;;;7.93;5.78;;;21.90;78.30;;;;;;5044835;28;20036;-79
2021/07/20 08:09:46;;;;;;;8.15;5.95;;;21.90;77.90;;;;;;5045424;28;20029;-80
2021/07/20 08:12:14;;;;;;;8.70;6.85;;;22.00;77.40;;;;;;5045735;28;20045;-79
2021/07/20 08:14:42;;;;;;;8.13;5.32;;;22.00;76.50;;;;;;5046207;28;20043;-79
2021/07/20 08:17:10;;;;;;;13.55;7.82;;;22.00;76.20;;;;;;5045462;28;20025;-79
2021/07/20 08:19:38;;;;;;;7.85;5.55;;;22.00;76.10;;;;;;5044962;28;20502;-80
2021/07/20 08:22:10;;;;;;;8.68;6.10;;;22.00;75.30;;;;;;5043656;28;20052;-79
2021/07/20 08:24:47;;;;;;;7.22;5.40;;;22.10;75.80;;;;;;5045978;28;20045;-80
2021/07/20 08:27:19;;;;;;;8.02;6.30;;;22.20;76.20;;;;;;5045095;28;20025;-79
2021/07/20 08:29:51;;;;;;;6.53;5.72;;;22.40;75.20;;;;;;5044563;28;20045;-79
2021/07/20 08:32:22;;;;;;;7.65;6.00;;;22.40;75.00;;;;;;5024567;28;20993;-79
2021/07/20 08:34:55;;;;;;;8.02;6.22;;;22.60;74.60;;;;;;5040919;28;20479;-79
2021/07/20 08:37:24;;;;;;;8.82;6.60;;;22.70;74.20;;;;;;5043354;28;20512;-79
2021/07/20 08:39:52;;;;;;;8.60;6.10;;;22.90;73.80;;;;;;5045474;28;20861;-80
2021/07/20 08:42:38;;;;;;;8.20;6.00;;;23.00;73.30;;;;;;5062170;28;20041;-79
2021/07/20 08:45:20;;;;;;;8.60;6.00;;;23.20;72.10;;;;;;5043942;28;20040;-80
2021/07/20 08:48:01;;;;;;;;;;;23.20;70.80;;;;;;5028062;28;20041;-80
2021/07/20 08:50:31;;;;;;;7.67;6.37;;;23.10;70.80;;;;;;5045075;28;20279;-79
2021/07/20 08:53:07;;;;;;;8.07;6.20;;;23.10;71.30;;;;;;5043426;28;20040;-80
2021/07/20 08:55:39;;;;;;;8.52;6.10;;;22.90;70.30;;;;;;5044225;28;20051;-80
2021/07/20 08:58:16;;;;;;;8.40;6.60;;;22.80;70.20;;;;;;5044429;28;20980;-79
2021/07/20 09:00:46;;;;;;;8.80;5.97;;;22.70;70.30;;;;;;5026993;28;21249;-79
2021/07/20 09:03:25;;;;;;;7.70;6.28;;;22.50;70.20;;;;;;5025578;28;20048;-80
2021/07/20 09:06:03;;;;;;;7.97;6.03;;;22.40;70.90;;;;;;5044744;28;20033;-80
2021/07/20 09:08:41;;;;;;;7.30;5.95;;;22.50;70.60;;;;;;5043497;28;20032;-81
2021/07/20 09:11:22;;;;;;;7.00;5.70;;;22.60;71.00;;;;;;5043962;28;20025;-80
2021/07/20 09:13:54;;;;;;;8.90;7.10;;;22.90;70.30;;;;;;5045557;28;20037;-80
2021/07/20 09:16:30;;;;;;;8.45;7.03;;;23.20;70.10;;;;;;5046331;28;20519;-79
2021/07/20 09:19:03;;;;;;;7.50;6.03;;;23.50;69.40;;;;;;5048266;28;20036;-79
2021/07/20 09:21:34;;;;;;;9.80;6.30;;;23.80;68.70;;;;;;5047097;28;20037;-80
2021/07/20 09:24:22;;;;;;;8.85;6.15;;;24.10;68.70;;;;;;5029714;28;20060;-79
2021/07/20 09:27:11;;;;;;;7.10;5.60;;;24.50;68.10;;;;;;5049174;28;20032;-80
2021/07/20 09:29:40;;;;;;;9.90;6.93;;;24.80;67.10;;;;;;5028506;28;20053;-79
2021/07/20 09:32:37;;;;;;;8.15;6.55;;;24.90;64.50;;;;;;5029769;28;20049;-79
2021/07/20 09:35:10;;;;;;;9.30;7.18;;;24.80;64.40;;;;;;5049664;28;20032;-81
2021/07/20 09:38:11;;;;;;;8.40;6.65;;;24.60;64.00;;;;;;5035006;28;20463;-80
2021/07/20 09:40:48;;;;;;;7.80;5.97;;;24.30;64.70;;;;;;5047657;28;20033;-80
2021/07/20 09:43:38;;;;;;;15.02;7.90;;;24.30;65.30;;;;;;5030578;28;20040;-80
2021/07/20 09:46:07;;;;;;;8.13;6.20;;;24.50;64.10;;;;;;5046731;28;20040;-81
2021/07/20 09:48:46;;;;;;;8.60;6.53;;;24.50;64.00;;;;;;5034415;28;20041;-80
2021/07/20 09:51:30;;;;;;;11.48;10.27;;;24.40;63.50;;;;;;5051788;28;20032;-80
2021/07/20 09:54:16;;;;;;;7.55;6.30;;;24.10;63.70;;;;;;5047875;28;20035;-79
2021/07/20 09:57:40;;;;;;;7.18;5.68;;;24.00;64.50;;;;;;5030236;28;20041;-80
2021/07/20 10:00:18;;;;;;;7.15;5.60;;;24.10;64.90;;;;;;5023575;28;20049;-76
2021/07/20 10:02:51;;;;;;;6.82;5.90;;;24.60;64.50;;;;;;5007174;28;20050;-79
2021/07/20 10:05:27;;;;;;;8.25;6.60;;;24.90;63.70;;;;;;5025330;28;20056;-80
2021/07/20 10:07:58;;;;;;;7.97;5.82;;;25.20;62.30;;;;;;5050776;28;20390;-77
2021/07/20 10:10:33;;;;;;;9.02;7.03;;;25.40;61.60;;;;;;5044719;28;20617;-76
2021/07/20 10:13:21;;;;;;;9.77;6.85;;;25.40;61.10;;;;;;5020079;28;20037;-76
2021/07/20 10:16:11;;;;;;;8.25;5.90;;;25.60;60.40;;;;;;5044937;28;20041;-77
2021/07/20 10:18:43;;;;;;;6.95;5.85;;;25.70;59.90;;;;;;5044825;28;20383;-76
2021/07/20 10:21:16;;;;;;;7.07;5.85;;;25.70;59.20;;;;;;5046507;28;20033;-76
2021/07/20 10:24:14;;;;;;;6.70;5.38;;;25.70;59.90;;;;;;5042796;28;20179;-76
2021/07/20 10:27:00;;;;;;;8.05;6.00;;;25.80;59.90;;;;;;5022631;28;20041;-76
2021/07/20 10:29:52;;;;;;;6.68;5.50;;;25.70;59.50;;;;;;5044463;28;20041;-75
2021/07/20 10:32:35;;;;;;;;;;;25.70;59.80;;;;;;5045696;28;20032;-76
2021/07/20 10:35:07;;;;;;;6.80;5.10;;;25.80;59.10;;;;;;5027140;28;19912;-77
2021/07/20 10:37:39;;;;;;;7.65;5.40;;;25.80;59.90;;;;;;5044403;28;20052;-77
2021/07/20 10:40:14;;;;;;;7.00;5.88;;;25.90;60.10;;;;;;5027705;28;20040;-77
2021/07/20 10:43:03;;;;;;;6.72;5.60;;;26.10;58.90;;;;;;4998411;28;20060;-76
2021/07/20 10:45:34;;;;;;;7.07;5.45;;;26.30;57.60;;;;;;5029120;28;20049;-77
2021/07/20 10:48:09;;;;;;;7.30;6.18;;;26.40;57.40;;;;;;5043982;28;20044;-76
2021/07/20 10:51:00;;;;;;;6.22;5.57;;;26.40;57.20;;;;;;5047134;28;20546;-77
2021/07/20 10:53:57;;;;;;;12.10;8.32;;;26.30;57.30;;;;;;5043858;28;20029;-77
2021/07/20 10:56:53;;;;;;;6.68;5.95;;;26.10;57.10;;;;;;5043735;28;20637;-77
2021/07/20 10:59:19;;;;;;;7.75;5.30;;;26.00;57.20;;;;;;5044881;28;20049;-77
2021/07/20 11:02:07;;;;;;;9.52;6.18;;;25.90;57.50;;;;;;5045329;28;20037;-77
2021/07/20 11:04:55;;;;;;;6.72;5.32;;;25.90;57.50;;;;;;5043667;28;20483;-76
2021/07/20 11:07:40;;;;;;;7.53;5.55;;;25.90;57.00;;;;;;5046043;28;20036;-77
2021/07/20 11:10:14;;;;;;;8.52;6.75;;;25.60;57.60;;;;;;5045521;28;20029;-77
2021/07/20 11:12:46;;;;;;;8.95;5.43;;;25.40;57.50;;;;;;5043487;28;20028;-77
2021/07/20 11:15:15;;;;;;;8.07;5.63;;;25.40;58.70;;;;;;5046017;28;20036;-77
2021/07/20 11:17:45;;;;;;;8.23;5.68;;;25.90;58.40;;;;;;5048366;28;20033;-77
2021/07/20 11:20:17;;;;;;;6.85;6.05;;;26.60;57.60;;;;;;5046117;28;20044;-77
2021/07/20 11:22:44;;;;;;;9.13;7.07;;;27.10;56.80;;;;;;5043305;28;20056;-79
2021/07/20 11:25:11;;;;;;;9.23;6.80;;;27.30;55.80;;;;;;5044588;28;20043;-78
2021/07/20 11:27:42;;;;;;;25.25;22.75;;;27.30;55.30;;;;;;5043916;28;20052;-78
2021/07/20 11:30:19;;;;;;;9.30;7.78;;;27.20;55.00;;;;;;5044719;28;20051;-77
2021/07/20 11:33:16;;;;;;;11.93;8.25;;;26.90;54.30;;;;;;5045674;28;20036;-80
2021/07/20 11:35:47;;;;;;;7.93;6.80;;;26.60;55.20;;;;;;5045864;28;20052;-77
2021/07/20 11:38:17;;;;;;;8.37;6.83;;;26.80;55.80;;;;;;5044359;28;20032;-78
2021/07/20 11:40:59;;;;;;;7.13;6.40;;;27.40;54.60;;;;;;5044528;28;20044;-78
2021/07/20 11:43:54;;;;;;;8.15;7.35;;;27.70;54.00;;;;;;5042019;28;20492;-78
2021/07/20 11:46:27;;;;;;;7.82;6.72;;;28.50;53.30;;;;;;5045556;28;20041;-78
2021/07/20 11:49:05;;;;;;;8.43;6.00;;;29.10;52.00;;;;;;5044377;28;20463;-78
2021/07/20 11:51:55;;;;;;;6.97;6.20;;;29.80;51.70;;;;;;5044396;28;20029;-77
2021/07/20 11:54:32;;;;;;;9.45;7.60;;;30.40;49.10;;;;;;5044092;28;20403;-80
2021/07/20 11:56:58;;;;;;;6.45;5.85;;;29.90;48.50;;;;;;5044505;28;20036;-79
2021/07/20 11:59:54;;;;;;;11.40;7.28;;;29.40;49.60;;;;;;5046075;28;20040;-79
2021/07/20 12:02:43;;;;;;;7.78;6.85;;;29.20;49.30;;;;;;5045367;28;20039;-79
2021/07/20 12:05:42;;;;;;;7.45;6.45;;;29.40;49.40;;;;;;5045239;28;20037;-79
2021/07/20 12:08:45;;;;;;;8.13;7.32;;;29.40;49.60;;;;;;5024114;28;20048;-79
2021/07/20 12:11:15;;;;;;;7.63;6.80;;;29.10;49.70;;;;;;5043218;28;20127;-79
2021/07/20 12:13:44;;;;;;;8.85;7.25;;;28.60;49.50;;;;;;5042915;28;20039;-79
2021/07/20 12:16:13;;;;;;;7.68;6.85;;;28.10;49.40;;;;;;5045117;28;20396;-79
2021/07/20 12:19:05;;;;;;;7.47;6.57;;;27.90;50.40;;;;;;5048341;28;20040;-80
2021/07/20 12:21:34;;;;;;;7.15;6.45;;;28.40;50.50;;;;;;5030044;28;20044;-79
2021/07/20 12:24:09;;;;;;;7.25;6.55;;;28.50;49.70;;;;;;5011970;28;20068;-79
2021/07/20 12:26:38;;;;;;;8.32;7.45;;;28.50;49.80;;;;;;5043965;28;20437;-78
2021/07/20 12:29:10;;;;;;;8.85;6.65;;;28.60;50.20;;;;;;5041815;28;20087;-78
2021/07/20 12:31:38;;;;;;;7.30;6.27;;;29.20;49.60;;;;;;5041524;28;20029;-77
2021/07/20 12:34:06;;;;;;;7.70;6.90;;;29.70;47.90;;;;;;5025652;28;20045;-77
2021/07/20 12:36:34;;;;;;;7.85;7.07;;;30.10;46.70;;;;;;5024949;28;20056;-80
2021/07/20 12:39:11;;;;;;;7.90;6.90;;;29.80;46.60;;;;;;5045324;28;20404;-80
2021/07/20 12:41:48;;;;;;;8.13;7.03;;;29.60;47.70;;;;;;5026112;28;20048;-80
2021/07/20 12:44:16;;;;;;;18.30;16.52;;;29.80;47.70;;;;;;5043583;28;20033;-80
2021/07/20 12:46:43;;;;;;;8.15;7.03;;;30.40;46.70;;;;;;5017693;28;20408;-80
2021/07/20 12:49:11;;;;;;;8.52;7.63;;;31.00;45.10;;;;;;5044685;28;20571;-80
2021/07/20 12:51:49;;;;;;;7.47;6.05;;;31.60;44.50;;;;;;5043930;28;20048;-80
2021/07/20 12:54:31;;;;;;;6.93;6.22;;;31.90;43.80;;;;;;5044831;28;20033;-80
2021/07/20 12:56:57;;;;;;;7.47;6.18;;;31.60;43.10;;;;;;5017835;28;20041;-79
2021/07/20 12:59:26;;;;;;;7.38;6.68;;;30.80;44.70;;;;;;5042828;28;20060;-79
2021/07/20 13:01:54;;;;;;;7.90;6.22;;;30.40;45.40;;;;;;5041064;28;20036;-78
2021/07/20 13:04:22;;;;;;;7.00;6.30;;;29.70;45.20;;;;;;5044410;28;20365;-79
2021/07/20 13:06:49;;;;;;;7.55;6.78;;;29.00;46.10;;;;;;5044491;28;20041;-79
2021/07/20 13:09:19;;;;;;;6.65;5.97;;;28.70;46.80;;;;;;5026925;28;20488;-79
2021/07/20 13:11:45;;;;;;;8.18;6.55;;;29.00;47.20;;;;;;5025874;28;20045;-79
2021/07/20 13:14:12;;;;;;;6.75;6.13;;;29.80;46.60;;;;;;5044614;28;20131;-80
2021/07/20 13:16:42;;;;;;;7.97;6.30;;;30.80;44.90;;;;;;5042825;28;20040;-80
2021/07/20 13:19:10;;;;;;;8.07;6.22;;;31.50;43.30;;;;;;5041050;28;20033;-80
2021/07/20 13:21:41;;;;;;;5.63;5.13;;;32.20;42.50;;;;;;5041198;28;20036;-80
2021/07/20 13:24:07;;;;;;;7.15;6.45;;;33.00;41.90;;;;;;5042261;28;20041;-80